Judi M. — WCX8376 — position and weather

sailwx.info

Track history (hours):
 
Tides and Currents Weather Stations Pressure Air Temp Water Temp Dewpoint Dewpoint Depression Visibility Wind Speed Wind Dir Waves Ship Positions

Judi M.

Owner: MANKE TUG & BARGE CO INC, SHELTON, WA. More information available from US FCC via Universal Licensing System and Coast Guard Vessel Documentation Center.

Last reported at 2016-Dec-05 10:33 UTC. Time now 2016-Dec-05 18:38 UTC.
Position N 47°34' W 122°22'.

Length 29 m; draft 4 m.

Type: Tow > 200 m length. MMSI: 366740920.

Date/timePositionNaut miles runAvg speedWind from/ knotsBaromVisibWave heightAir tempDewpointWater temp
2016-Dec-05 10:33N 47°34' W 122°22'2 1.7
2016-Dec-05 09:33N 47°36' W 122°23'6 5.8
2016-Dec-05 08:33N 47°40' W 122°29'6 5.9
2016-Dec-05 07:33N 47°46' W 122°27'6 5.5
2016-Dec-05 06:33N 47°51' W 122°29'4 4.3
2016-Dec-05 05:33N 47°55' W 122°32'5 5.1
2016-Dec-05 04:29N 47°59' W 122°37'9 0.6
2016-Dec-04 12:21N 48°06' W 122°48'7 2.5
2016-Dec-04 09:31N 48°03' W 122°38'7 7.4
2016-Dec-04 08:33N 47°57' W 122°32'8 7.8
2016-Dec-04 07:33N 47°50' W 122°27'8 8.0
2016-Dec-04 06:33N 47°42' W 122°26'7 6.9
2016-Dec-04 05:33N 47°36' W 122°22'2 1.7
2016-Dec-04 04:33N 47°34' W 122°22'  
2016-Nov-28 10:03N 47°34' W 122°22'0 0.0
2016-Nov-28 09:33N 47°34' W 122°22'3 2.8
2016-Nov-28 08:33N 47°36' W 122°24'7 6.8
2016-Nov-28 07:33N 47°43' W 122°28'7 7.2
2016-Nov-28 06:33N 47°50' W 122°29'7 6.5
2016-Nov-28 05:33N 47°56' W 122°32'6 5.3
2016-Nov-28 04:31N 48°00' W 122°38'9 1.7
2016-Nov-27 23:25N 48°06' W 122°48'0 0.0
2016-Nov-27 21:18N 48°06' W 122°48'0 0.0
2016-Nov-27 20:32N 48°06' W 122°48'0 0.0
2016-Nov-27 19:31N 48°06' W 122°48'0 0.0
2016-Nov-27 18:32N 48°06' W 122°48'0 0.0
2016-Nov-27 17:26N 48°06' W 122°48'0 0.0
2016-Nov-27 16:28N 48°06' W 122°48'0 0.0
2016-Nov-27 15:33N 48°06' W 122°48'5 1.5
2016-Nov-27 12:16N 48°06' W 122°40'6 8.0
2016-Nov-27 11:29N 47°60' W 122°37'6 6.6
2016-Nov-27 10:33N 47°56' W 122°30'7 6.6
2016-Nov-27 09:33N 47°50' W 122°27'7 6.6
2016-Nov-27 08:33N 47°43' W 122°26'7 6.8
2016-Nov-27 07:33N 47°37' W 122°23'3 2.7
2016-Nov-27 06:33N 47°34' W 122°22'0 0.0
2016-Nov-27 05:33N 47°34' W 122°22'  
Track history (hours):
 
Tides and Currents Weather Stations Pressure Air Temp Water Temp Dewpoint Dewpoint Depression Visibility Wind Speed Wind Dir Waves Ship Positions

Judi M.

Owner: MANKE TUG & BARGE CO INC, SHELTON, WA. More information available from US FCC via Universal Licensing System and Coast Guard Vessel Documentation Center.

Last reported at 2016-Dec-05 10:33 UTC. Time now 2016-Dec-05 18:38 UTC.
Position N 47°34' W 122°22'.

Length 29 m; draft 4 m.

Type: Tow > 200 m length. MMSI: 366740920.

Date/timePositionNaut miles runAvg speedWind from/ knotsBaromVisibWave heightAir tempDewpointWater temp
2016-Dec-05 10:33N 47°34' W 122°22'2 1.7
2016-Dec-05 09:33N 47°36' W 122°23'6 5.8
2016-Dec-05 08:33N 47°40' W 122°29'6 5.9
2016-Dec-05 07:33N 47°46' W 122°27'6 5.5
2016-Dec-05 06:33N 47°51' W 122°29'4 4.3
2016-Dec-05 05:33N 47°55' W 122°32'5 5.1
2016-Dec-05 04:29N 47°59' W 122°37'9 0.6
2016-Dec-04 12:21N 48°06' W 122°48'7 2.5
2016-Dec-04 09:31N 48°03' W 122°38'7 7.4
2016-Dec-04 08:33N 47°57' W 122°32'8 7.8
2016-Dec-04 07:33N 47°50' W 122°27'8 8.0
2016-Dec-04 06:33N 47°42' W 122°26'7 6.9
2016-Dec-04 05:33N 47°36' W 122°22'2 1.7
2016-Dec-04 04:33N 47°34' W 122°22'  
2016-Nov-28 10:03N 47°34' W 122°22'0 0.0
2016-Nov-28 09:33N 47°34' W 122°22'3 2.8
2016-Nov-28 08:33N 47°36' W 122°24'7 6.8
2016-Nov-28 07:33N 47°43' W 122°28'7 7.2
2016-Nov-28 06:33N 47°50' W 122°29'7 6.5
2016-Nov-28 05:33N 47°56' W 122°32'6 5.3
2016-Nov-28 04:31N 48°00' W 122°38'9 1.7
2016-Nov-27 23:25N 48°06' W 122°48'0 0.0
2016-Nov-27 21:18N 48°06' W 122°48'0 0.0
2016-Nov-27 20:32N 48°06' W 122°48'0 0.0
2016-Nov-27 19:31N 48°06' W 122°48'0 0.0
2016-Nov-27 18:32N 48°06' W 122°48'0 0.0
2016-Nov-27 17:26N 48°06' W 122°48'0 0.0
2016-Nov-27 16:28N 48°06' W 122°48'0 0.0
2016-Nov-27 15:33N 48°06' W 122°48'5 1.5
2016-Nov-27 12:16N 48°06' W 122°40'6 8.0
2016-Nov-27 11:29N 47°60' W 122°37'6 6.6
2016-Nov-27 10:33N 47°56' W 122°30'7 6.6
2016-Nov-27 09:33N 47°50' W 122°27'7 6.6
2016-Nov-27 08:33N 47°43' W 122°26'7 6.8
2016-Nov-27 07:33N 47°37' W 122°23'3 2.7
2016-Nov-27 06:33N 47°34' W 122°22'0 0.0
2016-Nov-27 05:33N 47°34' W 122°22'  

Dump ship's entire track history